Time;durP1;ratioP1;P1;durP2;ratioP2;P2;SDS_P1;SDS_P2;PMS_P1;PMS_P2;Temp;Humidity;BMP_temperature;BMP_pressure;BME280_temperature;BME280_humidity;BME280_pressure;Samples;Min_cycle;Max_cycle;Signal;HPM_P1;HPM_P2
2023/03/09 00:01:53;;;;;;;0.60;0.40;;;13.50;66.10;;;9.23;97.44;93709.75;4954349;28;20033;-51
2023/03/09 00:04:21;;;;;;;3.33;0.50;;;13.40;66.30;;;9.18;99.16;93707.22;4941435;29;20034;-50
2023/03/09 00:06:47;;;;;;;1.20;0.60;;;13.30;66.40;;;9.06;100.00;93709.63;4934257;28;20050;-51
2023/03/09 00:09:16;;;;;;;0.47;0.40;;;13.20;66.70;;;9.02;100.00;93704.94;4957809;28;20076;-50
2023/03/09 00:11:48;;;;;;;1.00;0.52;;;13.10;66.90;;;8.97;100.00;93709.56;4953178;28;20022;-51
2023/03/09 00:14:18;;;;;;;0.93;0.50;;;13.10;67.40;;;8.95;100.00;93709.84;4927466;28;20078;-52
2023/03/09 00:16:48;;;;;;;0.70;0.57;;;13.10;67.60;;;8.93;100.00;93713.88;4963649;28;20053;-53
2023/03/09 00:19:31;;;;;;;0.77;0.70;;;13.00;67.90;;;8.92;100.00;93712.31;4955164;28;20039;-50
2023/03/09 00:22:03;;;;;;;;;;;13.10;68.10;;;8.93;100.00;93729.81;4956712;28;20029;-53
2023/03/09 00:24:45;;;;;;;0.90;0.55;;;13.00;68.50;;;8.94;100.00;93726.88;4973960;28;20253;-50
2023/03/09 00:27:17;;;;;;;0.43;0.40;;;13.00;68.00;;;8.88;100.00;93728.06;4960405;28;20026;-52
2023/03/09 00:29:45;;;;;;;0.93;0.60;;;13.00;68.00;;;8.80;100.00;93734.84;4968117;28;20030;-48
2023/03/09 00:32:11;;;;;;;0.60;0.60;;;13.00;68.00;;;8.78;100.00;93721.09;4986556;28;20025;-50
2023/03/09 00:34:36;;;;;;;2.15;0.60;;;12.90;68.00;;;8.73;100.00;93702.63;4984881;28;20026;-52
2023/03/09 00:37:05;;;;;;;2.15;0.60;;;12.90;68.00;;;8.69;100.00;93703.53;4958328;28;20019;-49
2023/03/09 00:39:34;;;;;;;0.50;0.50;;;12.90;68.30;;;8.62;100.00;93698.63;4965368;28;20035;-51
2023/03/09 00:42:02;;;;;;;0.82;0.57;;;12.80;68.40;;;8.54;100.00;93708.06;4966541;28;20458;-48
2023/03/09 00:44:28;;;;;;;1.10;0.63;;;12.80;68.50;;;8.55;100.00;93719.44;4978268;28;20029;-50
2023/03/09 00:46:54;;;;;;;0.90;0.50;;;12.70;68.70;;;8.56;100.00;93719.16;4984141;28;20030;-49
2023/03/09 00:49:25;;;;;;;0.63;0.52;;;12.70;68.90;;;8.56;100.00;93711.22;4970942;28;20116;-49
2023/03/09 00:51:57;;;;;;;1.45;0.90;;;12.70;69.00;;;8.48;100.00;93714.53;4968032;28;20023;-50
2023/03/09 00:54:29;;;;;;;0.80;0.80;;;12.60;69.00;;;8.49;100.00;93679.00;4962483;28;20486;-49
2023/03/09 00:57:02;;;;;;;0.65;0.60;;;12.60;69.10;;;8.48;100.00;93689.88;4985637;28;20045;-52
2023/03/09 00:59:33;;;;;;;0.95;0.70;;;12.60;69.50;;;8.53;100.00;93692.44;4953032;28;20030;-50
2023/03/09 01:02:21;;;;;;;1.45;0.63;;;12.60;69.70;;;8.61;100.00;93698.91;4972122;28;20100;-50
2023/03/09 01:04:48;;;;;;;1.13;0.60;;;12.60;69.70;;;8.61;100.00;93712.97;4952396;28;20034;-50
2023/03/09 01:07:18;;;;;;;1.00;0.75;;;12.60;69.70;;;8.65;100.00;93710.50;4935384;28;20450;-50
2023/03/09 01:09:47;;;;;;;1.10;0.70;;;12.60;70.00;;;8.69;100.00;93699.00;4954765;28;20041;-52
2023/03/09 01:12:25;;;;;;;0.95;0.60;;;12.60;70.00;;;8.67;100.00;93705.69;4965243;28;20025;-49
2023/03/09 01:15:01;;;;;;;1.55;0.70;;;12.60;69.80;;;8.72;100.00;93718.84;4971355;28;20030;-50
2023/03/09 01:17:26;;;;;;;0.73;0.60;;;12.70;69.90;;;8.77;100.00;93729.34;4953227;28;20057;-51
2023/03/09 01:19:52;;;;;;;0.65;0.65;;;12.70;70.00;;;8.77;100.00;93726.69;4954323;28;20030;-50
2023/03/09 01:22:24;;;;;;;1.00;0.70;;;12.70;69.90;;;8.82;100.00;93747.84;4953798;28;20080;-52
2023/03/09 01:25:06;;;;;;;0.73;0.60;;;12.70;70.00;;;8.89;100.00;93752.75;4958224;28;20231;-56
2023/03/09 01:27:47;;;;;;;0.60;0.60;;;12.70;70.10;;;8.94;100.00;93745.47;4951884;28;20014;-54
2023/03/09 01:30:14;;;;;;;1.02;0.63;;;12.80;70.40;;;8.96;100.00;93735.34;4952813;28;20054;-51
2023/03/09 01:32:42;;;;;;;1.08;0.68;;;12.80;70.10;;;8.93;100.00;93719.19;4968557;28;20022;-50
2023/03/09 01:35:11;;;;;;;2.38;0.82;;;12.80;70.00;;;8.90;100.00;93711.81;4954601;28;20120;-50
2023/03/09 01:37:37;;;;;;;2.63;1.10;;;12.80;70.00;;;8.89;100.00;93705.72;4958102;28;20089;-50
2023/03/09 01:40:06;;;;;;;1.35;0.90;;;12.80;69.80;;;8.79;100.00;93712.03;4954903;28;20053;-50
2023/03/09 01:42:38;;;;;;;1.85;1.10;;;12.80;69.80;;;8.77;100.00;93710.78;4969126;28;20036;-51
2023/03/09 01:45:19;;;;;;;2.25;0.80;;;12.80;69.80;;;8.72;100.00;93703.72;4957922;28;20037;-51
2023/03/09 01:47:49;;;;;;;3.70;0.88;;;12.80;69.70;;;8.72;100.00;93687.78;4957252;28;20033;-51
2023/03/09 01:50:33;;;;;;;0.95;0.70;;;12.80;69.70;;;8.73;99.60;93668.13;4957051;28;20114;-53
2023/03/09 01:53:16;;;;;;;1.70;0.57;;;12.80;69.80;;;8.95;95.76;93680.63;4954228;28;20026;-51
2023/03/09 01:55:51;;;;;;;3.25;0.65;;;12.80;69.90;;;9.01;95.55;93683.97;4949926;28;20029;-50
2023/03/09 01:58:33;;;;;;;1.70;0.65;;;12.80;69.80;;;9.08;95.71;93696.81;4942081;28;20076;-51
2023/03/09 02:01:06;;;;;;;0.98;0.50;;;12.90;69.80;;;9.16;95.03;93693.47;4957349;28;20030;-51
2023/03/09 02:03:45;;;;;;;0.70;0.50;;;12.90;69.80;;;9.15;93.82;93698.00;4971739;28;20452;-52
2023/03/09 02:06:17;;;;;;;0.65;0.60;;;13.00;69.50;;;9.18;93.23;93699.25;4956326;28;20041;-51
2023/03/09 02:09:14;;;;;;;2.20;0.70;;;13.00;69.30;;;9.18;94.02;93718.66;4927709;28;20092;-53
2023/03/09 02:11:47;;;;;;;1.23;0.90;;;13.10;69.10;;;9.15;94.60;93724.56;4969540;28;20563;-51
2023/03/09 02:14:15;;;;;;;0.70;0.63;;;13.10;68.90;;;9.17;94.19;93732.22;4952976;28;20033;-50
2023/03/09 02:16:40;;;;;;;1.67;0.90;;;13.10;68.80;;;9.32;91.47;93739.84;4941275;28;20034;-50
2023/03/09 02:19:41;;;;;;;1.33;0.65;;;13.20;68.60;;;9.35;91.41;93744.56;4962637;28;20033;-52
2023/03/09 02:22:07;;;;;;;1.60;0.75;;;13.30;68.50;;;9.40;89.45;93739.13;4929003;28;20042;-52
2023/03/09 02:25:01;;;;;;;1.13;0.55;;;13.30;68.20;;;9.49;86.56;93745.31;4951664;28;20064;-52
2023/03/09 02:27:29;;;;;;;2.70;1.05;;;13.40;67.60;;;9.56;84.88;93747.53;4954902;28;20405;-51
2023/03/09 02:30:03;;;;;;;4.25;0.80;;;13.50;67.00;;;9.54;85.84;93763.00;4952596;28;20025;-51
2023/03/09 02:32:37;;;;;;;3.03;0.77;;;13.50;66.40;;;9.49;86.14;93752.47;4954287;28;20072;-50
2023/03/09 02:35:09;;;;;;;1.35;0.40;;;13.60;66.00;;;9.48;85.71;93772.16;4977304;28;20492;-50
2023/03/09 02:37:40;;;;;;;1.15;0.60;;;13.70;65.70;;;9.46;87.14;93782.31;4951832;28;20476;-50
2023/03/09 02:40:36;;;;;;;0.80;0.60;;;13.70;65.50;;;9.38;88.56;93751.94;4952627;28;20033;-52
2023/03/09 02:43:07;;;;;;;1.40;0.70;;;13.70;65.30;;;9.31;88.65;93745.44;4960017;28;20101;-53
2023/03/09 02:45:33;;;;;;;0.90;0.55;;;13.70;65.20;;;9.29;89.02;93744.97;4951055;28;20033;-53
2023/03/09 02:48:08;;;;;;;1.00;0.60;;;13.70;65.10;;;9.31;89.39;93751.56;4951500;28;20018;-50
2023/03/09 02:50:34;;;;;;;1.58;0.65;;;13.70;65.10;;;9.23;90.47;93737.13;4983507;28;20548;-50
2023/03/09 02:53:06;;;;;;;2.00;0.52;;;13.70;65.10;;;9.18;91.23;93729.28;4936459;28;20081;-50
2023/03/09 02:55:41;;;;;;;1.87;0.60;;;13.60;65.10;;;9.14;92.66;93746.09;4952288;28;20432;-51
2023/03/09 02:58:07;;;;;;;0.93;0.60;;;13.60;65.10;;;9.04;93.96;93729.31;4939364;28;20029;-52
2023/03/09 03:00:35;;;;;;;0.98;0.60;;;13.60;65.20;;;9.01;94.79;93708.66;4935495;28;20030;-51
2023/03/09 03:03:01;;;;;;;1.35;0.57;;;13.50;65.30;;;8.97;95.12;93694.41;4953159;28;20066;-50
2023/03/09 03:05:33;;;;;;;0.60;0.50;;;13.50;65.40;;;8.96;96.00;93721.25;4952281;28;20405;-50
2023/03/09 03:08:02;;;;;;;1.17;0.60;;;13.50;65.60;;;8.92;95.69;93725.59;4985068;28;20097;-51
2023/03/09 03:10:30;;;;;;;1.80;0.80;;;13.40;65.70;;;8.92;96.18;93715.75;4989728;28;20022;-51
2023/03/09 03:13:05;;;;;;;0.75;0.70;;;13.40;65.80;;;8.92;95.72;93733.56;4973002;28;20033;-51
2023/03/09 03:15:34;;;;;;;1.55;0.52;;;13.40;66.10;;;8.94;95.59;93734.06;4953281;28;20034;-50
2023/03/09 03:18:00;;;;;;;2.53;0.70;;;13.30;66.30;;;8.91;94.84;93716.84;4951758;28;20047;-52
2023/03/09 03:20:26;;;;;;;1.70;0.60;;;13.30;66.30;;;8.95;94.81;93738.28;4958619;28;20041;-55
2023/03/09 03:22:52;;;;;;;2.30;0.95;;;13.30;66.30;;;8.97;95.26;93744.09;4961307;28;20026;-53
2023/03/09 03:25:21;;;;;;;0.68;0.63;;;13.30;66.40;;;8.97;95.50;93760.00;4968585;28;20030;-53
2023/03/09 03:27:53;;;;;;;1.80;0.80;;;13.20;66.30;;;8.96;95.34;93775.16;4953330;28;20053;-57
2023/03/09 03:30:19;;;;;;;3.20;0.80;;;13.20;66.40;;;9.02;94.81;93759.88;4928411;29;20031;-55
2023/03/09 03:32:52;;;;;;;2.72;0.77;;;13.10;66.60;;;9.00;95.74;93768.16;4963105;28;20029;-56
2023/03/09 03:35:18;;;;;;;0.93;0.75;;;13.20;66.80;;;8.98;96.17;93764.22;4961838;28;20022;-57
2023/03/09 03:37:44;;;;;;;1.88;0.65;;;13.10;67.60;;;8.95;97.13;93772.78;4949625;23;20047;-55
2023/03/09 03:40:12;;;;;;;1.58;0.90;;;13.10;67.00;;;8.93;97.65;93765.13;4932003;29;20041;-52
2023/03/09 03:42:38;;;;;;;2.00;0.93;;;13.00;67.10;;;8.89;98.38;93756.19;4930016;29;20443;-55
2023/03/09 03:45:05;;;;;;;2.22;0.90;;;13.00;67.30;;;8.85;98.38;93752.56;4924104;29;20136;-53
2023/03/09 03:47:34;;;;;;;1.50;0.88;;;12.90;67.40;;;8.83;98.34;93748.63;4950421;28;20023;-49
2023/03/09 03:50:00;;;;;;;1.58;0.77;;;12.90;67.70;;;8.82;99.56;93768.28;4955630;28;20026;-53
2023/03/09 03:52:25;;;;;;;2.50;0.82;;;12.90;67.80;;;8.79;99.26;93762.50;4944507;28;20026;-53
2023/03/09 03:54:52;;;;;;;1.25;0.90;;;12.90;68.00;;;8.84;96.92;93771.41;4941712;28;20026;-52
2023/03/09 03:57:23;;;;;;;0.90;0.73;;;12.90;68.10;;;8.89;96.05;93796.00;4930117;29;20027;-55
2023/03/09 03:59:58;;;;;;;2.83;1.00;;;12.90;68.30;;;8.93;96.30;93789.03;4958597;28;20117;-53
2023/03/09 04:02:27;;;;;;;5.88;1.00;;;12.90;68.30;;;8.92;97.08;93802.59;4938910;28;20042;-53
2023/03/09 04:04:53;;;;;;;1.58;0.63;;;12.90;68.30;;;8.87;96.62;93790.22;4953187;28;20513;-50
2023/03/09 04:07:25;;;;;;;1.17;0.70;;;12.80;68.30;;;8.85;97.62;93810.19;4950288;28;20117;-52
2023/03/09 04:09:50;;;;;;;1.75;0.70;;;12.80;68.40;;;8.79;99.05;93818.25;4932829;28;20029;-53
2023/03/09 04:12:19;;;;;;;2.97;0.90;;;12.70;68.40;;;8.74;100.00;93828.97;4958839;28;20027;-50
2023/03/09 04:14:45;;;;;;;5.35;1.30;;;12.70;68.60;;;8.67;100.00;93827.78;4953987;28;20057;-53
2023/03/09 04:17:11;;;;;;;5.57;1.20;;;12.70;68.70;;;8.61;100.00;93850.97;4951929;28;20050;-52
2023/03/09 04:19:40;;;;;;;2.85;1.20;;;12.60;68.80;;;8.50;100.00;93841.63;4950315;28;20577;-52
2023/03/09 04:22:09;;;;;;;4.13;1.40;;;12.60;68.90;;;8.34;100.00;93864.97;4935465;28;20078;-49
2023/03/09 04:24:35;;;;;;;5.60;1.10;;;12.50;68.90;;;8.15;100.00;93865.03;4937876;28;20032;-53
2023/03/09 04:27:04;;;;;;;1.85;1.20;;;12.40;68.90;;;8.08;100.00;93862.75;4951767;28;20117;-50
2023/03/09 04:29:30;;;;;;;5.40;1.02;;;12.40;69.00;;;7.91;100.00;93881.03;4937162;28;20022;-54
2023/03/09 04:31:59;;;;;;;4.35;0.82;;;12.30;69.00;;;7.77;100.00;93904.03;4947059;28;20064;-53
2023/03/09 04:34:40;;;;;;;4.97;1.00;;;12.30;69.10;;;7.55;100.00;93909.91;4947656;28;20441;-55
2023/03/09 04:37:12;;;;;;;3.92;0.80;;;12.10;69.00;;;7.52;100.00;93926.38;4933843;28;20437;-56
2023/03/09 04:39:38;;;;;;;4.30;0.82;;;12.10;69.40;;;7.47;100.00;93927.25;4930894;28;20089;-54
2023/03/09 04:42:04;;;;;;;1.52;0.82;;;12.00;69.40;;;7.49;100.00;93933.06;4937313;28;20019;-56
2023/03/09 04:44:33;;;;;;;4.57;0.80;;;11.90;69.50;;;7.38;100.00;93935.03;4926229;28;20817;-55
2023/03/09 04:47:08;;;;;;;1.90;0.70;;;11.90;69.80;;;7.32;100.00;93946.75;4930897;28;20038;-51
2023/03/09 04:49:34;;;;;;;3.25;0.50;;;11.80;70.00;;;7.24;100.00;93963.28;4915873;29;20481;-53
2023/03/09 04:51:59;;;;;;;1.75;0.50;;;11.80;70.10;;;7.26;100.00;93961.13;4916025;29;20023;-50
2023/03/09 04:54:25;;;;;;;1.70;0.90;;;11.70;70.10;;;7.24;100.00;93976.53;4932977;29;20023;-50
2023/03/09 04:56:57;;;;;;;3.90;0.75;;;11.70;70.00;;;7.20;100.00;93983.44;4935821;28;20441;-53
2023/03/09 04:59:23;;;;;;;1.48;0.50;;;11.70;70.30;;;7.18;100.00;93981.09;4940933;28;20753;-53
2023/03/09 05:01:49;;;;;;;1.50;0.75;;;11.60;70.30;;;7.13;100.00;93993.59;4930948;29;20039;-48
2023/03/09 05:04:15;;;;;;;1.60;0.38;;;11.60;70.40;;;7.08;100.00;94005.03;4900821;29;20019;-48
2023/03/09 05:06:50;;;;;;;1.95;0.40;;;11.50;70.50;;;7.08;100.00;94004.22;4932222;29;20641;-48
2023/03/09 05:09:19;;;;;;;1.83;0.55;;;11.50;70.80;;;7.11;100.00;93998.38;4929198;29;20134;-54
2023/03/09 05:11:51;;;;;;;0.75;0.40;;;11.50;70.90;;;7.08;100.00;94005.03;4927818;28;20027;-50
2023/03/09 05:14:21;;;;;;;0.90;0.47;;;11.50;71.00;;;7.10;100.00;94024.06;4934542;28;20023;-48
2023/03/09 05:16:52;;;;;;;1.92;0.50;;;11.40;71.30;;;7.11;100.00;94028.31;4907649;28;20027;-51
2023/03/09 05:19:30;;;;;;;2.38;0.85;;;11.50;71.30;;;7.08;100.00;94023.56;4945429;28;20034;-51
2023/03/09 05:22:02;;;;;;;1.02;0.50;;;11.40;71.30;;;7.11;100.00;94041.56;4903729;29;20030;-53
2023/03/09 05:24:29;;;;;;;1.38;0.70;;;11.40;71.30;;;7.13;100.00;94038.59;4932936;28;20034;-54
2023/03/09 05:26:58;;;;;;;1.75;0.60;;;11.40;71.30;;;7.11;100.00;94049.50;4939218;28;20031;-53
2023/03/09 05:29:24;;;;;;;4.10;0.60;;;11.40;71.50;;;7.14;100.00;94048.13;4935422;28;20038;-48
2023/03/09 05:31:50;;;;;;;1.27;0.70;;;11.50;71.50;;;7.15;100.00;94049.72;4935780;28;20034;-51
2023/03/09 05:34:25;;;;;;;3.42;0.55;;;11.50;71.60;;;7.15;100.00;94052.38;4916999;29;20029;-53
2023/03/09 05:36:51;;;;;;;6.07;0.90;;;11.50;71.80;;;7.21;100.00;94061.84;4914847;29;20031;-52
2023/03/09 05:39:17;;;;;;;4.90;0.93;;;11.50;71.70;;;7.18;100.00;94073.78;4910256;29;20050;-50
2023/03/09 05:41:53;;;;;;;3.63;1.40;;;11.50;71.80;;;7.22;100.00;94075.88;4923787;29;20512;-51
2023/03/09 05:44:19;;;;;;;2.22;0.90;;;11.50;71.90;;;7.23;100.00;94078.22;4920994;28;20054;-51
2023/03/09 05:46:45;;;;;;;4.88;1.02;;;11.60;71.80;;;7.17;100.00;94084.63;4932262;28;20119;-52
2023/03/09 05:49:11;;;;;;;7.25;1.38;;;11.60;71.80;;;7.20;100.00;94094.66;4931630;28;20023;-48
2023/03/09 05:51:37;;;;;;;2.22;1.10;;;11.50;71.90;;;7.18;100.00;94096.81;4927161;29;20027;-50
2023/03/09 05:54:03;;;;;;;2.78;1.20;;;11.60;72.10;;;7.21;100.00;94098.91;4919135;29;20382;-48
2023/03/09 05:56:29;;;;;;;4.00;1.15;;;11.50;72.10;;;7.24;100.00;94106.31;4915076;29;20031;-48
2023/03/09 05:58:56;;;;;;;1.55;1.10;;;11.60;72.20;;;7.27;100.00;94118.19;4930994;29;20026;-52
2023/03/09 06:01:28;;;;;;;2.50;1.33;;;11.50;72.20;;;7.25;100.00;94134.38;4929827;29;20386;-53
2023/03/09 06:03:55;;;;;;;0.68;0.68;;;11.50;72.30;;;7.25;100.00;94137.00;4911636;29;20054;-49
2023/03/09 06:06:22;;;;;;;2.88;1.00;;;11.60;72.20;;;7.27;100.00;94142.84;4926030;29;20027;-51
2023/03/09 06:09:00;;;;;;;5.35;1.00;;;11.60;72.30;;;7.27;100.00;94158.72;4929743;29;20065;-53
2023/03/09 06:11:26;;;;;;;5.28;1.08;;;11.60;72.30;;;7.26;100.00;94159.78;4930646;28;20018;-51
2023/03/09 06:13:55;;;;;;;2.10;0.90;;;11.60;72.20;;;7.28;100.00;94170.09;4914578;29;20047;-49
2023/03/09 06:16:26;;;;;;;2.25;0.50;;;11.60;72.30;;;7.20;100.00;94168.81;4933170;28;20457;-50
2023/03/09 06:18:55;;;;;;;2.00;0.80;;;11.60;72.20;;;7.22;100.00;94179.94;4914762;29;20043;-52
2023/03/09 06:21:21;;;;;;;4.60;0.70;;;11.60;72.20;;;7.27;100.00;94182.56;4927160;28;20035;-55
2023/03/09 06:23:47;;;;;;;2.15;0.70;;;11.60;72.20;;;7.32;100.00;94193.09;4911775;29;20023;-50
2023/03/09 06:26:15;;;;;;;0.93;0.70;;;11.60;72.20;;;7.31;100.00;94198.69;4927047;29;20466;-53
2023/03/09 06:28:41;;;;;;;4.03;0.70;;;11.60;72.10;;;7.26;100.00;94196.06;4920878;29;20045;-49
2023/03/09 06:31:12;;;;;;;1.52;0.55;;;11.70;72.10;;;7.28;100.00;94201.88;4883449;29;23844;-56
2023/03/09 06:33:40;;;;;;;1.55;0.40;;;11.70;72.00;;;7.24;100.00;94204.31;4913420;29;20023;-48
2023/03/09 06:36:08;;;;;;;0.43;0.40;;;11.60;72.00;;;7.24;100.00;94214.91;4929642;29;20050;-48
2023/03/09 06:38:34;;;;;;;2.03;0.63;;;11.60;72.00;;;7.26;100.00;94219.91;4920532;29;20135;-50
2023/03/09 06:41:00;;;;;;;8.95;0.68;;;11.60;72.00;;;7.24;100.00;94233.44;4929401;29;20039;-54
2023/03/09 06:43:26;;;;;;;0.98;0.50;;;11.60;71.90;;;7.20;100.00;94248.28;4917173;29;20098;-48
2023/03/09 06:45:55;;;;;;;0.77;0.50;;;11.60;71.80;;;7.23;100.00;94252.25;4930717;29;20043;-55
2023/03/09 06:48:21;;;;;;;1.88;0.30;;;11.60;71.80;;;7.12;100.00;94254.19;4929104;29;20026;-52
2023/03/09 06:50:50;;;;;;;2.53;0.70;;;11.50;71.60;;;7.07;100.00;94268.22;4898019;29;20042;-49
2023/03/09 06:53:17;;;;;;;1.77;0.43;;;11.50;71.60;;;7.01;100.00;94266.66;4930521;28;20027;-52
2023/03/09 06:55:46;;;;;;;1.48;0.40;;;11.40;71.30;;;6.98;100.00;94277.81;4908058;29;20019;-49
2023/03/09 06:58:13;;;;;;;0.20;0.20;;;11.40;71.20;;;6.95;100.00;94270.41;4919122;28;20502;-52
2023/03/09 07:00:40;;;;;;;0.45;0.40;;;11.40;71.20;;;6.93;100.00;94286.56;4926141;28;20188;-51
2023/03/09 07:03:18;;;;;;;0.43;0.35;;;11.40;71.20;;;7.00;100.00;94290.78;4915606;28;20106;-55
2023/03/09 07:05:44;;;;;;;0.45;0.30;;;11.40;71.30;;;7.03;100.00;94293.66;4914901;29;20022;-51
2023/03/09 07:08:10;;;;;;;1.17;0.30;;;11.40;71.30;;;7.06;100.00;94295.78;4931468;29;20477;-53
2023/03/09 07:10:36;;;;;;;0.20;0.20;;;11.40;71.30;;;7.08;100.00;94295.50;4916452;29;20027;-50
2023/03/09 07:13:04;;;;;;;0.10;0.10;;;11.50;71.30;;;7.08;100.00;94298.94;4917637;29;20023;-48
2023/03/09 07:15:35;;;;;;;0.10;0.10;;;11.40;71.10;;;7.05;100.00;94302.16;4932077;29;20446;-50
2023/03/09 07:18:01;;;;;;;0.20;0.20;;;11.50;71.10;;;6.93;100.00;94312.25;4937257;29;20537;-51
2023/03/09 07:20:30;;;;;;;0.10;0.10;;;11.40;70.90;;;6.88;100.00;94313.06;4937663;28;20034;-48
2023/03/09 07:22:59;;;;;;;0.10;0.10;;;11.40;70.70;;;6.91;100.00;94317.03;4929814;29;20493;-49
2023/03/09 07:25:25;;;;;;;0.17;0.17;;;11.30;70.60;;;6.95;100.00;94321.50;4927893;28;20045;-49
2023/03/09 07:27:54;;;;;;;0.20;0.20;;;11.40;70.60;;;7.05;100.00;94325.16;4935577;28;20090;-53
2023/03/09 07:30:20;;;;;;;0.10;0.10;;;11.50;70.50;;;7.18;100.00;94327.22;4924646;29;20435;-48
2023/03/09 07:32:45;;;;;;;0.20;0.20;;;11.80;70.40;;;7.26;100.00;94331.94;4916193;29;20516;-50
2023/03/09 07:35:11;;;;;;;0.60;0.60;;;12.00;70.20;;;7.26;100.00;94337.22;4932932;29;20035;-49
2023/03/09 07:37:37;;;;;;;0.20;0.20;;;12.00;70.20;;;7.27;100.00;94345.97;4934256;28;20023;-51
2023/03/09 07:40:05;;;;;;;0.20;0.20;;;12.00;70.00;;;7.27;98.28;94325.59;4953181;28;20042;-49
2023/03/09 07:42:31;;;;;;;0.10;0.10;;;12.00;69.90;;;7.22;97.12;94332.78;4952226;28;20029;-49
2023/03/09 07:45:00;;;;;;;0.20;0.20;;;12.00;69.60;;;7.25;97.31;94337.53;4953866;28;20182;-51
2023/03/09 07:47:27;;;;;;;0.15;0.15;;;12.10;69.60;;;7.26;96.08;94349.69;4935612;28;20752;-51
2023/03/09 07:49:55;;;;;;;0.20;0.20;;;12.10;69.30;;;7.22;95.99;94353.97;4936497;28;20130;-49
2023/03/09 07:52:21;;;;;;;0.20;0.20;;;12.10;69.20;;;7.15;98.23;94360.34;4936112;28;20026;-49
2023/03/09 07:54:51;;;;;;;0.15;0.15;;;12.00;69.00;;;7.21;98.81;94357.66;4951538;28;20037;-56
2023/03/09 07:57:20;;;;;;;0.20;0.20;;;12.00;69.00;;;7.16;97.27;94367.22;4953215;28;20501;-51
2023/03/09 07:59:55;;;;;;;0.10;0.10;;;12.00;69.00;;;7.28;96.94;94363.47;4943828;28;20042;-52
2023/03/09 08:02:23;;;;;;;0.20;0.20;;;12.10;68.90;;;7.41;94.60;94368.94;4949279;28;20038;-54
2023/03/09 08:04:49;;;;;;;0.20;0.20;;;12.20;68.90;;;7.53;93.33;94381.06;4949342;28;20030;-50
2023/03/09 08:07:34;;;;;;;0.20;0.20;;;12.30;68.90;;;7.69;92.32;94385.22;4928833;28;20026;-53
2023/03/09 08:10:07;;;;;;;0.20;0.20;;;12.50;69.50;;;7.93;91.21;94390.63;4927442;28;20034;-54
2023/03/09 08:12:33;;;;;;;0.45;0.45;;;12.80;68.70;;;8.28;89.54;94386.09;4948305;28;20022;-52
2023/03/09 08:15:02;;;;;;;0.30;0.30;;;13.10;68.30;;;8.78;87.91;94386.72;4948631;28;20027;-50
2023/03/09 08:17:34;;;;;;;0.30;0.30;;;13.70;68.00;;;9.18;84.95;94393.44;4945943;28;20121;-52
2023/03/09 08:20:16;;;;;;;0.30;0.30;;;14.30;67.50;;;9.41;82.50;94386.50;4953269;28;20108;-54
2023/03/09 08:22:51;;;;;;;0.20;0.20;;;14.80;66.90;;;9.63;80.87;94391.25;4952192;28;20708;-54
2023/03/09 08:25:20;;;;;;;0.30;0.30;;;15.30;66.00;;;9.72;80.34;94381.56;4955269;28;20064;-53
2023/03/09 08:27:59;;;;;;;0.30;0.30;;;15.60;65.20;;;10.10;77.45;94399.38;4952377;28;20113;-52
2023/03/09 08:30:26;;;;;;;0.30;0.30;;;16.00;64.70;;;10.23;76.77;94398.63;4937319;28;20060;-49
2023/03/09 08:33:06;;;;;;;0.30;0.30;;;16.30;64.20;;;10.31;75.82;94408.66;4951702;28;20458;-49
2023/03/09 08:35:35;;;;;;;0.30;0.30;;;16.40;64.50;;;10.33;75.89;94416.31;4950853;28;20117;-54
2023/03/09 08:38:04;;;;;;;0.20;0.20;;;16.50;63.30;;;10.08;74.31;94404.97;4932120;29;20514;-52
2023/03/09 08:40:32;;;;;;;0.20;0.20;;;16.30;62.70;;;9.90;74.97;94397.78;4948845;28;20037;-52
2023/03/09 08:43:07;;;;;;;0.20;0.20;;;16.10;62.50;;;9.67;75.07;94415.41;4950943;28;20030;-51
2023/03/09 08:45:33;;;;;;;0.20;0.20;;;16.00;62.10;;;9.51;74.25;94409.50;4952480;28;20162;-49
2023/03/09 08:47:59;;;;;;;0.30;0.30;;;15.80;61.70;;;9.58;75.18;94430.41;4951697;28;20109;-49
2023/03/09 08:50:34;;;;;;;0.20;0.20;;;15.60;61.50;;;9.49;73.60;94417.78;4951961;28;20165;-48
2023/03/09 08:53:09;;;;;;;0.20;0.20;;;15.50;61.50;;;9.50;75.65;94429.97;4951865;28;20050;-50
2023/03/09 08:55:38;;;;;;;0.20;0.20;;;15.30;61.20;;;9.62;74.42;94436.72;4936311;28;20513;-48
2023/03/09 08:58:07;;;;;;;0.65;0.65;;;15.30;61.30;;;9.68;73.33;94438.25;4935201;28;20393;-54
2023/03/09 09:00:33;;;;;;;0.20;0.20;;;15.40;61.30;;;9.86;70.78;94442.00;4939174;28;20034;-48
2023/03/09 09:03:03;;;;;;;0.70;0.52;;;15.50;61.20;;;9.92;70.61;94439.00;4951178;28;20023;-48
2023/03/09 09:05:29;;;;;;;0.22;0.22;;;15.60;60.60;;;10.32;70.61;94446.69;4937321;28;20460;-48
2023/03/09 09:08:04;;;;;;;0.40;0.40;;;15.90;60.50;;;10.84;67.26;94442.09;4950881;28;20038;-54
2023/03/09 09:10:30;;;;;;;0.40;0.40;;;16.50;60.40;;;11.25;68.39;94454.69;4912124;28;20026;-48
2023/03/09 09:12:56;;;;;;;0.75;0.75;;;17.10;59.60;;;11.62;68.17;94445.69;4934591;28;20505;-49
2023/03/09 09:15:23;;;;;;;0.45;0.45;;;17.70;59.20;;;12.26;65.00;94451.81;4934445;28;20260;-52
2023/03/09 09:17:48;;;;;;;0.30;0.30;;;18.40;59.00;;;12.36;63.16;94442.78;4939550;28;20030;-49
2023/03/09 09:20:21;;;;;;;0.30;0.30;;;18.70;58.20;;;12.28;60.56;94448.81;4951630;28;20464;-50
2023/03/09 09:22:49;;;;;;;0.30;0.30;;;19.00;57.80;;;12.09;62.90;94440.19;4930154;28;20163;-48
2023/03/09 09:25:34;;;;;;;0.30;0.30;;;19.00;57.20;;;11.87;61.13;94444.38;4937678;28;20033;-49
2023/03/09 09:28:00;;;;;;;0.30;0.30;;;19.00;56.40;;;11.74;60.31;94451.31;4952193;28;20556;-50
2023/03/09 09:30:31;;;;;;;0.40;0.40;;;19.00;55.30;;;11.73;62.80;94449.72;4949498;28;20739;-51
2023/03/09 09:32:58;;;;;;;0.30;0.30;;;19.10;54.30;;;11.86;61.48;94434.81;4951415;28;20154;-49
2023/03/09 09:35:25;;;;;;;0.40;0.40;;;19.20;53.80;;;12.27;60.72;94434.69;4941538;28;20030;-51
2023/03/09 09:37:54;;;;;;;0.40;0.40;;;19.50;53.40;;;12.73;61.44;94438.16;4941809;28;20042;-54
2023/03/09 09:40:21;;;;;;;0.40;0.40;;;19.80;53.70;;;13.19;61.07;94435.09;4951867;28;20037;-52
2023/03/09 09:42:49;;;;;;;0.43;0.43;;;20.10;53.50;;;13.31;57.98;94423.81;4947112;28;20026;-53
2023/03/09 09:45:35;;;;;;;1.60;0.75;;;20.30;53.50;;;13.15;58.02;94406.59;4941587;28;20454;-52
2023/03/09 09:48:08;;;;;;;3.53;1.20;;;20.60;52.60;;;13.01;58.79;94422.75;4949031;28;20046;-52
2023/03/09 09:50:52;;;;;;;4.43;1.30;;;20.50;52.30;;;12.91;59.59;94423.78;4949777;28;20031;-54
2023/03/09 09:53:49;;;;;;;5.40;1.52;;;20.30;52.00;;;13.18;58.84;94430.03;4934255;28;20400;-52
2023/03/09 09:56:24;;;;;;;3.42;1.20;;;20.30;52.20;;;12.89;58.67;94417.97;4942867;28;20038;-53
2023/03/09 09:59:06;;;;;;;4.30;1.50;;;20.30;51.50;;;12.90;58.72;94408.84;4938138;28;20023;-52
2023/03/09 10:02:09;;;;;;;6.22;1.17;;;20.30;50.90;;;12.88;57.30;94378.16;4944008;28;20371;-52
2023/03/09 10:05:28;;;;;;;5.50;1.40;;;20.20;50.80;;;13.36;59.33;94409.53;4942852;28;20034;-51
2023/03/09 10:08:00;;;;;;;9.40;2.13;;;20.30;50.60;;;13.43;58.20;94388.47;4933080;28;20474;-53
2023/03/09 10:10:32;;;;;;;5.07;1.38;;;20.60;50.40;;;13.41;57.45;94407.50;4919631;28;20464;-54
2023/03/09 10:13:14;;;;;;;6.57;1.60;;;20.80;49.70;;;13.49;57.96;94400.59;4937271;28;20395;-52
2023/03/09 10:15:41;;;;;;;6.80;1.67;;;21.00;49.30;;;13.73;60.21;94394.81;4937366;28;20379;-50
2023/03/09 10:18:22;;;;;;;6.70;1.90;;;21.10;49.30;;;13.96;57.38;94400.81;4944233;28;20517;-53
2023/03/09 10:20:53;;;;;;;6.15;1.92;;;21.30;49.30;;;13.85;56.18;94397.69;4947542;28;20401;-54
2023/03/09 10:23:30;;;;;;;5.22;1.65;;;21.60;48.60;;;13.84;56.06;94395.28;4934544;28;20130;-56
2023/03/09 10:26:34;;;;;;;5.00;1.70;;;21.80;47.80;;;14.37;57.29;94407.59;4854936;29;22277;-53
2023/03/09 10:29:22;;;;;;;5.50;1.58;;;22.00;47.80;;;14.65;55.09;94412.63;4946228;28;20066;-54
2023/03/09 10:32:04;;;;;;;4.25;1.60;;;22.30;47.80;;;14.70;55.02;94412.47;4915465;28;20026;-50
2023/03/09 10:35:03;;;;;;;5.65;1.90;;;22.60;46.80;;;15.02;52.58;94397.72;4945734;28;20445;-53
2023/03/09 10:37:36;;;;;;;3.70;1.90;;;22.80;46.90;;;14.88;54.41;94407.84;4940969;28;20037;-54
2023/03/09 10:40:22;;;;;;;4.28;1.75;;;23.10;45.70;;;14.80;52.35;94390.69;4931876;28;20041;-51